createdAt,value
2019-01-26T00:01:26.122Z,135.63
2019-01-26T00:03:54.299Z,146.37
2019-01-26T00:06:22.057Z,139.50
2019-01-26T00:08:50.140Z,143.47
2019-01-26T00:11:18.270Z,130.47
2019-01-26T00:13:46.086Z,136.03
2019-01-26T00:16:20.727Z,145.47
2019-01-26T00:18:44.428Z,136.67
2019-01-26T00:21:12.427Z,142.70
2019-01-26T00:23:40.942Z,142.27
2019-01-26T00:26:09.425Z,153.83
2019-01-26T00:28:37.139Z,149.33
2019-01-26T00:31:04.989Z,147.93
2019-01-26T00:33:33.096Z,154.30
2019-01-26T00:36:01.359Z,148.43
2019-01-26T00:38:29.156Z,146.70
2019-01-26T00:40:57.279Z,186.83
2019-01-26T00:43:25.341Z,163.87
2019-01-26T00:45:53.442Z,176.40
2019-01-26T00:48:21.405Z,167.50
2019-01-26T00:50:49.573Z,188.77
2019-01-26T00:53:17.307Z,179.87
2019-01-26T00:55:45.146Z,177.47
2019-01-26T00:58:12.861Z,207.77
2019-01-26T01:00:40.834Z,202.47
2019-01-26T01:03:08.949Z,174.97
2019-01-26T01:05:36.608Z,222.57
2019-01-26T01:08:04.541Z,206.87
2019-01-26T01:10:32.167Z,222.03
2019-01-26T01:13:00.489Z,242.20
2019-01-26T01:15:28.475Z,244.27
2019-01-26T01:17:56.564Z,238.63
2019-01-26T01:20:24.656Z,224.13
2019-01-26T01:22:52.658Z,239.23
2019-01-26T01:25:20.702Z,312.90
2019-01-26T01:27:48.605Z,241.80
2019-01-26T01:30:18.833Z,315.77
2019-01-26T01:32:46.730Z,308.27
2019-01-26T01:35:15.571Z,314.67
2019-01-26T01:37:43.898Z,312.87
2019-01-26T01:40:12.211Z,351.43
2019-01-26T01:42:40.854Z,301.90
2019-01-26T01:45:10.835Z,312.20
2019-01-26T01:47:39.270Z,235.67
2019-01-26T01:50:08.349Z,322.10
2019-01-26T01:52:36.737Z,274.10
2019-01-26T01:55:05.915Z,292.13
2019-01-26T01:57:42.597Z,273.87
2019-01-26T02:00:20.602Z,292.63
2019-01-26T02:02:48.975Z,246.43
2019-01-26T02:05:17.990Z,262.87
2019-01-26T02:07:46.262Z,245.63
2019-01-26T02:10:16.744Z,236.47
2019-01-26T02:12:44.850Z,276.00
2019-01-26T02:15:13.045Z,254.10
2019-01-26T02:17:41.401Z,238.33
2019-01-26T02:20:11.514Z,262.20
2019-01-26T02:22:39.683Z,220.73
2019-01-26T02:25:08.213Z,226.90
2019-01-26T02:27:36.138Z,262.50
2019-01-26T02:30:06.345Z,264.43
2019-01-26T02:32:34.733Z,241.43
2019-01-26T02:35:02.952Z,240.17
2019-01-26T02:37:31.412Z,236.53
2019-01-26T02:39:59.893Z,363.60
2019-01-26T02:42:28.322Z,311.10
2019-01-26T02:44:56.436Z,236.17
2019-01-26T02:47:24.648Z,253.03
2019-01-26T02:49:52.564Z,323.13
2019-01-26T02:52:20.586Z,278.27
2019-01-26T02:54:48.766Z,235.17
2019-01-26T02:57:16.409Z,233.90
2019-01-26T02:59:44.400Z,306.70
2019-01-26T03:02:12.538Z,310.63
2019-01-26T03:04:40.378Z,283.30
2019-01-26T03:07:08.290Z,277.80
2019-01-26T03:09:36.259Z,261.23
2019-01-26T03:12:04.271Z,245.70
2019-01-26T03:14:32.549Z,252.27
2019-01-26T03:17:05.863Z,290.13
2019-01-26T03:19:30.238Z,286.40
2019-01-26T03:21:58.034Z,303.37
2019-01-26T03:24:25.770Z,303.67
2019-01-26T03:26:53.752Z,250.37
2019-01-26T03:29:21.874Z,284.10
2019-01-26T03:31:49.547Z,332.33
2019-01-26T03:34:17.439Z,289.20
2019-01-26T03:36:45.513Z,305.20
2019-01-26T03:39:13.633Z,314.93
2019-01-26T03:41:42.900Z,287.40
2019-01-26T03:44:10.770Z,271.20
2019-01-26T03:46:38.581Z,363.70
2019-01-26T03:49:07.454Z,379.33
2019-01-26T03:51:35.756Z,343.73
2019-01-26T03:54:04.120Z,325.50
2019-01-26T03:56:32.863Z,401.67
2019-01-26T03:59:01.986Z,406.20
2019-01-26T04:01:30.362Z,380.77
2019-01-26T04:03:58.695Z,385.00
2019-01-26T04:09:16.361Z,390.23
2019-01-26T04:11:44.931Z,295.87
2019-01-26T04:14:13.038Z,416.23
2019-01-26T04:16:41.194Z,411.50
2019-01-26T04:19:09.449Z,417.33
2019-01-26T04:21:37.730Z,297.43
2019-01-26T04:24:06.039Z,384.17
2019-01-26T04:26:33.831Z,305.07
2019-01-26T04:29:01.929Z,266.50
2019-01-26T04:31:30.151Z,191.87
2019-01-26T04:33:58.083Z,105.87
2019-01-26T04:36:26.351Z,123.00
2019-01-26T04:38:54.536Z,120.27
2019-01-26T04:41:22.337Z,154.00
2019-01-26T04:43:50.394Z,129.30
2019-01-26T04:46:18.191Z,185.23
2019-01-26T04:48:46.748Z,174.47
2019-01-26T04:51:14.992Z,218.83
2019-01-26T04:53:43.211Z,340.90
2019-01-26T04:56:11.354Z,271.03
2019-01-26T04:58:39.985Z,211.10
2019-01-26T05:01:08.088Z,213.93
2019-01-26T05:03:35.989Z,224.10
2019-01-26T05:06:04.570Z,262.83
2019-01-26T05:08:34.208Z,236.57
2019-01-26T05:11:02.334Z,295.07
2019-01-26T05:13:30.371Z,199.33
2019-01-26T05:15:58.592Z,192.20
2019-01-26T05:18:26.919Z,195.07
2019-01-26T05:20:55.051Z,184.70
2019-01-26T05:23:23.362Z,213.27
2019-01-26T05:25:51.490Z,162.70
2019-01-26T05:28:19.816Z,180.07
2019-01-26T05:30:47.650Z,159.87
2019-01-26T05:33:16.692Z,144.37
2019-01-26T05:35:45.566Z,153.20
2019-01-26T05:38:14.282Z,203.13
2019-01-26T05:40:44.968Z,178.97
2019-01-26T05:43:13.340Z,150.73
2019-01-26T05:45:42.693Z,163.80
2019-01-26T05:48:11.036Z,142.53
2019-01-26T05:50:39.790Z,149.57
2019-01-26T05:53:08.276Z,139.87
2019-01-26T05:55:36.782Z,189.57
2019-01-26T05:58:05.399Z,169.53
2019-01-26T06:00:36.870Z,131.37
2019-01-26T06:03:06.416Z,122.73
2019-01-26T06:05:34.818Z,142.10
2019-01-26T06:08:03.295Z,113.03
2019-01-26T06:10:31.856Z,142.70
2019-01-26T06:13:00.144Z,141.63
2019-01-26T06:15:27.885Z,116.10
2019-01-26T06:17:56.080Z,111.43
2019-01-26T06:20:24.669Z,162.17
2019-01-26T06:22:53.051Z,130.27
2019-01-26T06:25:21.627Z,140.27
2019-01-26T06:27:49.850Z,118.17
2019-01-26T06:30:20.206Z,117.27
2019-01-26T06:32:48.304Z,145.67
2019-01-26T06:35:16.342Z,133.70
2019-01-26T06:37:44.562Z,141.90
2019-01-26T06:40:14.511Z,115.60
2019-01-26T06:42:42.746Z,107.80
2019-01-26T06:45:11.791Z,84.30
2019-01-26T06:47:39.682Z,109.70
2019-01-26T06:50:11.002Z,127.87
2019-01-26T06:52:41.523Z,95.33
2019-01-26T06:55:10.657Z,111.33
2019-01-26T07:04:02.527Z,92.87
2019-01-26T07:06:39.533Z,100.47
2019-01-26T07:09:08.871Z,98.77
2019-01-26T07:11:39.984Z,93.30
2019-01-26T07:14:09.385Z,105.37
2019-01-26T07:16:47.602Z,89.70
2019-01-26T07:19:16.418Z,75.40
2019-01-26T07:22:02.445Z,70.13
2019-01-26T07:24:31.698Z,88.37
2019-01-26T07:27:00.004Z,73.60
2019-01-26T07:29:29.568Z,76.70
2019-01-26T07:31:57.879Z,80.00
2019-01-26T07:34:27.928Z,91.50
2019-01-26T07:36:56.737Z,80.90
2019-01-26T07:39:51.057Z,96.93
2019-01-26T07:45:33.847Z,80.50
2019-01-26T07:57:29.933Z,60.60
2019-01-26T07:59:58.705Z,74.03
2019-01-26T08:02:33.526Z,84.47
2019-01-26T08:05:02.165Z,65.20
2019-01-26T08:07:31.632Z,74.60
2019-01-26T08:10:01.301Z,92.67
2019-01-26T08:12:39.414Z,77.57
2019-01-26T08:15:13.949Z,75.80
2019-01-26T08:17:46.512Z,87.57
2019-01-26T08:20:22.862Z,92.53
2019-01-26T08:23:31.633Z,73.07
2019-01-26T08:25:55.310Z,70.10
2019-01-26T08:28:30.605Z,75.27
2019-01-26T08:31:16.730Z,75.47
2019-01-26T08:34:17.954Z,60.20
2019-01-26T08:36:39.388Z,62.77
2019-01-26T08:39:36.568Z,66.63
2019-01-26T08:42:23.743Z,80.07
2019-01-26T08:45:05.562Z,99.80
2019-01-26T08:47:50.643Z,66.63
2019-01-26T08:50:25.752Z,78.33
2019-01-26T08:53:20.698Z,74.77
2019-01-26T08:56:45.338Z,77.13
2019-01-26T08:59:46.694Z,83.03
2019-01-26T09:02:46.487Z,61.57
2019-01-26T09:06:09.268Z,61.63
2019-01-26T09:08:52.465Z,64.13
2019-01-26T09:11:30.188Z,59.37
2019-01-26T09:14:03.449Z,70.20
2019-01-26T09:17:09.093Z,64.47
2019-01-26T09:20:12.514Z,60.07
2019-01-26T09:22:48.473Z,60.60
2019-01-26T09:28:10.733Z,50.57
2019-01-26T09:30:42.726Z,41.47
2019-01-26T09:33:11.771Z,45.70
2019-01-26T09:35:43.352Z,46.73
2019-01-26T09:38:13.270Z,49.63
2019-01-26T09:40:45.525Z,46.40
2019-01-26T09:46:31.215Z,42.03
2019-01-26T09:49:09.118Z,38.73
2019-01-26T09:51:46.770Z,34.37
2019-01-26T09:54:46.649Z,38.23
2019-01-26T09:57:51.936Z,31.13
2019-01-26T10:00:56.546Z,37.47
2019-01-26T10:03:42.655Z,36.83
2019-01-26T10:09:37.960Z,33.20
2019-01-26T10:12:07.409Z,32.77
2019-01-26T10:14:57.649Z,35.50
2019-01-26T10:17:32.980Z,36.13
2019-01-26T10:20:28.625Z,38.60
2019-01-26T10:23:00.471Z,34.67
2019-01-26T10:25:48.612Z,34.87
2019-01-26T10:28:14.926Z,30.60
2019-01-26T10:30:54.287Z,35.57
2019-01-26T10:33:29.177Z,34.73
2019-01-26T10:36:29.980Z,31.20
2019-01-26T10:39:35.110Z,29.43
2019-01-26T10:42:38.380Z,29.40
2019-01-26T10:45:15.092Z,26.40
2019-01-26T10:47:48.524Z,28.07
2019-01-26T11:02:27.105Z,24.53
2019-01-26T11:04:55.187Z,74.90
2019-01-26T11:07:23.100Z,135.47
2019-01-26T11:15:48.655Z,492.30
2019-01-26T11:18:16.428Z,288.93
2019-01-26T11:20:44.113Z,56.47
2019-01-26T11:23:11.725Z,25.63
2019-01-26T11:25:39.774Z,30.87
2019-01-26T11:28:07.332Z,47.27
2019-01-26T11:30:35.800Z,30.83
2019-01-26T11:33:03.621Z,35.70
2019-01-26T11:35:31.632Z,19.83
2019-01-26T11:37:59.420Z,20.30
2019-01-26T11:40:27.392Z,25.93
2019-01-26T11:49:23.561Z,20.97
2019-01-26T11:52:11.171Z,22.43
2019-01-26T11:54:57.886Z,16.10
2019-01-26T11:57:28.223Z,12.10
2019-01-26T12:00:17.584Z,15.90
2019-01-26T12:02:56.529Z,11.57
2019-01-26T12:05:38.347Z,15.90
2019-01-26T12:08:06.414Z,18.23
2019-01-26T12:10:34.521Z,12.60
2019-01-26T12:13:02.397Z,17.77
2019-01-26T12:15:30.540Z,12.57
2019-01-26T12:17:58.257Z,13.00
2019-01-26T12:20:26.340Z,12.10
2019-01-26T12:22:54.870Z,9.93
2019-01-26T12:25:22.538Z,9.47
2019-01-26T12:27:50.688Z,11.17
2019-01-26T12:30:18.308Z,9.70
2019-01-26T12:32:47.517Z,12.03
2019-01-26T12:35:15.223Z,8.70
2019-01-26T12:37:43.302Z,9.10
2019-01-26T12:40:11.223Z,8.83
2019-01-26T12:42:39.119Z,8.27
2019-01-26T12:45:10.632Z,10.50
2019-01-26T12:47:38.754Z,8.30
2019-01-26T12:50:07.701Z,10.70
2019-01-26T12:52:35.836Z,8.33
2019-01-26T12:55:03.880Z,9.67
2019-01-26T12:57:34.745Z,9.53
2019-01-26T13:00:03.041Z,11.20
2019-01-26T13:02:30.692Z,16.60
2019-01-26T13:04:58.668Z,11.60
2019-01-26T13:07:27.328Z,9.10
2019-01-26T13:09:55.312Z,10.63
2019-01-26T13:12:22.917Z,8.87
2019-01-26T13:14:50.779Z,8.53
2019-01-26T13:17:18.696Z,14.33
2019-01-26T13:19:46.457Z,9.10
2019-01-26T13:22:14.298Z,11.67
2019-01-26T13:24:42.521Z,8.07
2019-01-26T13:27:10.231Z,9.70
2019-01-26T13:29:38.333Z,10.90
2019-01-26T13:32:06.004Z,15.93
2019-01-26T13:34:34.012Z,13.53
2019-01-26T13:37:01.786Z,21.37
2019-01-26T13:39:29.652Z,17.47
2019-01-26T13:41:57.298Z,10.50
2019-01-26T13:44:25.138Z,19.30
2019-01-26T13:46:53.104Z,23.97
2019-01-26T13:49:20.955Z,23.93
2019-01-26T13:51:48.608Z,41.17
2019-01-26T13:54:16.762Z,25.70
2019-01-26T13:56:44.603Z,33.47
2019-01-26T13:59:12.371Z,13.20
2019-01-26T14:01:41.260Z,43.43
2019-01-26T14:04:08.703Z,9.03
2019-01-26T14:06:36.633Z,17.20
2019-01-26T14:09:07.311Z,15.43
2019-01-26T14:11:35.418Z,13.10
2019-01-26T14:14:03.916Z,12.43
2019-01-26T14:16:31.441Z,12.77
2019-01-26T14:18:59.558Z,16.87
2019-01-26T14:21:27.856Z,17.90
2019-01-26T14:23:55.804Z,18.40
2019-01-26T14:26:23.943Z,17.73
2019-01-26T14:28:51.845Z,19.43
2019-01-26T14:31:19.819Z,21.30
2019-01-26T14:33:47.683Z,19.77
2019-01-26T14:36:16.411Z,25.50
2019-01-26T14:38:46.016Z,27.90
2019-01-26T14:44:17.849Z,22.47
2019-01-26T14:46:46.570Z,19.27
2019-01-26T14:49:15.129Z,22.70
2019-01-26T14:51:42.610Z,19.67
2019-01-26T14:54:10.552Z,18.33
2019-01-26T14:56:43.601Z,16.37
2019-01-26T14:59:11.300Z,18.60
2019-01-26T15:04:58.865Z,16.17
2019-01-26T15:07:26.673Z,15.60
2019-01-26T15:09:54.929Z,18.40
2019-01-26T15:12:22.764Z,17.30
2019-01-26T15:14:51.323Z,21.50
2019-01-26T15:17:18.806Z,21.27
2019-01-26T15:21:38.258Z,24.47
2019-01-26T15:22:32.857Z,25.10
2019-01-26T15:25:00.532Z,21.13
2019-01-26T15:27:40.086Z,25.47
2019-01-26T15:30:21.747Z,22.07
2019-01-26T15:33:02.104Z,20.80
2019-01-26T15:35:30.765Z,17.67
2019-01-26T15:38:01.544Z,15.17
2019-01-26T15:40:31.955Z,17.97
2019-01-26T15:42:59.657Z,25.43
2019-01-26T15:45:38.694Z,23.43
2019-01-26T17:38:19.077Z,41.57
2019-01-26T17:40:54.038Z,41.03
2019-01-26T17:43:17.457Z,40.47
2019-01-26T17:45:46.934Z,45.40
2019-01-26T17:48:15.340Z,48.60
2019-01-26T17:50:43.091Z,43.80
2019-01-26T17:53:13.258Z,45.30
2019-01-26T17:55:41.015Z,40.03
2019-01-26T17:58:09.240Z,44.03
2019-01-26T18:00:49.237Z,41.93
2019-01-26T18:03:17.308Z,48.50
2019-01-26T18:05:45.892Z,51.73
2019-01-26T18:08:13.775Z,49.33
2019-01-26T18:10:41.820Z,54.50
2019-01-26T18:13:11.344Z,54.43
2019-01-26T18:15:42.940Z,56.13
2019-01-26T18:57:18.258Z,67.33
2019-01-26T18:59:47.827Z,68.93
2019-01-26T19:02:20.095Z,63.47
2019-01-26T19:04:59.067Z,68.53
2019-01-26T19:07:43.840Z,72.33
2019-01-26T19:10:15.852Z,72.83
2019-01-26T19:12:54.363Z,67.33
2019-01-26T19:22:48.565Z,61.27
2019-01-26T19:25:32.964Z,66.37
2019-01-26T19:28:27.748Z,66.83
2019-01-26T19:31:49.949Z,50.70
2019-01-26T20:04:25.489Z,45.90
2019-01-26T20:06:57.310Z,50.30
2019-01-26T20:09:26.947Z,49.17
2019-01-26T20:15:38.100Z,49.57
2019-01-26T20:18:07.014Z,47.60
2019-01-26T20:20:35.714Z,46.93
2019-01-26T20:23:03.698Z,48.70
2019-01-26T20:25:32.633Z,50.20
2019-01-26T20:31:27.169Z,50.80
2019-01-26T20:34:19.550Z,57.17
2019-01-26T20:46:55.478Z,51.20
2019-01-26T20:49:23.588Z,52.33
2019-01-26T20:51:52.877Z,49.37
2019-01-26T20:54:21.926Z,51.07
2019-01-26T20:56:50.028Z,52.33
2019-01-26T20:59:18.674Z,52.80
2019-01-26T21:01:46.895Z,50.90
2019-01-26T21:04:24.623Z,52.50
2019-01-26T21:06:53.841Z,54.53
2019-01-26T21:09:25.104Z,55.53
2019-01-26T21:11:53.311Z,54.30
2019-01-26T21:14:21.625Z,55.63
2019-01-26T21:16:50.184Z,52.07
2019-01-26T21:19:18.448Z,57.60
2019-01-26T21:21:46.416Z,56.13
2019-01-26T21:24:14.594Z,50.17
2019-01-26T21:26:42.365Z,51.63
2019-01-26T21:29:12.257Z,58.13
2019-01-26T21:31:42.051Z,54.23
2019-01-26T21:34:09.936Z,51.20
2019-01-26T21:36:38.127Z,52.53
2019-01-26T21:39:29.170Z,54.70
2019-01-26T21:41:57.377Z,60.60
2019-01-26T21:47:37.404Z,59.53
2019-01-26T21:51:06.693Z,60.23
2019-01-26T21:53:06.766Z,58.30
2019-01-26T21:55:35.045Z,60.97
2019-01-26T21:58:03.868Z,61.03
2019-01-26T22:00:33.336Z,60.40
2019-01-26T22:03:01.520Z,63.47
2019-01-26T22:05:32.497Z,59.87
2019-01-26T22:08:01.179Z,57.43
2019-01-26T22:10:29.230Z,61.83
2019-01-26T22:12:57.353Z,59.87
2019-01-26T22:15:26.143Z,59.37
2019-01-26T22:17:54.370Z,64.47
2019-01-26T22:20:27.021Z,63.73
2019-01-26T22:22:55.169Z,61.10
2019-01-26T22:25:23.350Z,62.47
2019-01-26T22:27:52.538Z,71.07
2019-01-26T22:30:22.776Z,62.13
2019-01-26T22:32:51.317Z,71.97
2019-01-26T22:35:20.111Z,76.27
2019-01-26T22:37:48.297Z,72.87
2019-01-26T22:40:22.473Z,75.43
2019-01-26T22:42:51.306Z,67.67
2019-01-26T22:45:19.433Z,72.90
2019-01-26T22:47:47.995Z,71.23
2019-01-26T22:50:17.166Z,72.47
2019-01-26T22:52:45.195Z,74.47
2019-01-26T22:55:14.847Z,71.30
2019-01-26T22:57:44.183Z,69.53
2019-01-26T23:00:50.359Z,71.77
2019-01-26T23:03:20.100Z,75.77
2019-01-26T23:06:14.221Z,71.87
2019-01-26T23:08:42.490Z,81.47
2019-01-26T23:11:39.028Z,70.93
2019-01-26T23:14:33.743Z,79.50
2019-01-26T23:17:12.946Z,76.30
2019-01-26T23:20:18.514Z,85.93
2019-01-26T23:23:37.208Z,80.60
2019-01-26T23:26:24.329Z,79.97
2019-01-26T23:29:33.974Z,83.13
2019-01-26T23:32:02.057Z,83.43
2019-01-26T23:34:30.373Z,76.70
2019-01-26T23:36:58.354Z,77.87
2019-01-26T23:39:26.047Z,85.67
2019-01-26T23:41:53.830Z,86.63
2019-01-26T23:44:22.141Z,82.80
2019-01-26T23:46:50.314Z,78.20
2019-01-26T23:49:18.657Z,80.23
2019-01-26T23:51:46.351Z,89.33
2019-01-26T23:54:18.361Z,78.80
2019-01-26T23:56:46.735Z,84.07
2019-01-26T23:59:14.651Z,69.20
